Time;durP1;ratioP1;P1;durP2;ratioP2;P2;SDS_P1;SDS_P2;PMS_P1;PMS_P2;Temp;Humidity;BMP_temperature;BMP_pressure;BME280_temperature;BME280_humidity;BME280_pressure;Samples;Min_cycle;Max_cycle;Signal;HPM_P1;HPM_P2
2023/03/17 00:00:43;;;;;;;8.98;4.70;;;6.40;99.90;;;;;;4840728;29;20072;-75
2023/03/17 00:03:30;;;;;;;8.45;5.45;;;6.50;99.90;;;;;;4837117;29;20161;-75
2023/03/17 00:05:58;;;;;;;7.43;4.88;;;6.50;99.90;;;;;;4860675;29;20109;-76
2023/03/17 00:08:30;;;;;;;8.27;5.28;;;6.60;99.90;;;;;;4841643;29;20069;-75
2023/03/17 00:10:56;;;;;;;8.07;4.93;;;6.60;99.90;;;;;;4843037;29;20042;-75
2023/03/17 00:13:22;;;;;;;9.30;5.10;;;6.60;99.90;;;;;;4839934;29;20418;-75
2023/03/17 00:15:54;;;;;;;8.55;4.78;;;6.50;99.90;;;;;;4844673;29;20034;-75
2023/03/17 00:18:21;;;;;;;7.43;4.93;;;6.60;99.90;;;;;;4843281;29;20045;-76
2023/03/17 00:20:47;;;;;;;8.85;5.60;;;6.60;99.90;;;;;;4856762;29;20052;-75
2023/03/17 00:23:19;;;;;;;8.13;5.00;;;6.50;99.90;;;;;;4846047;29;20033;-75
2023/03/17 00:25:45;;;;;;;8.55;5.22;;;6.50;99.90;;;;;;4850534;29;20025;-75
2023/03/17 00:28:25;;;;;;;7.50;5.05;;;6.50;99.90;;;;;;4845489;29;20060;-75
2023/03/17 00:30:59;;;;;;;7.70;5.13;;;6.50;99.90;;;;;;4841656;29;20053;-75
2023/03/17 00:33:28;;;;;;;6.85;4.65;;;6.50;99.90;;;;;;4842902;29;20037;-75
2023/03/17 00:35:55;;;;;;;6.32;4.32;;;6.50;99.90;;;;;;4846470;29;20118;-75
2023/03/17 00:38:23;;;;;;;8.77;5.20;;;6.50;99.90;;;;;;4845262;29;20333;-75
2023/03/17 00:40:49;;;;;;;7.05;4.75;;;6.50;99.90;;;;;;4860274;29;20113;-75
2023/03/17 00:43:16;;;;;;;9.80;4.85;;;6.50;99.90;;;;;;4857349;29;20046;-75
2023/03/17 00:45:43;;;;;;;7.07;4.55;;;6.50;99.90;;;;;;4853328;29;20041;-75
2023/03/17 00:48:17;;;;;;;9.65;5.13;;;6.40;99.90;;;;;;4841670;29;20473;-76
2023/03/17 00:50:44;;;;;;;6.55;4.32;;;6.50;99.90;;;;;;4871300;29;20097;-75
2023/03/17 00:53:12;;;;;;;9.20;4.85;;;6.50;99.90;;;;;;4841448;29;20050;-75
2023/03/17 00:55:39;;;;;;;6.97;5.22;;;6.40;99.90;;;;;;4858862;29;20086;-75
2023/03/17 00:58:30;;;;;;;7.88;4.68;;;6.50;99.90;;;;;;4828969;29;20045;-75
2023/03/17 01:00:56;;;;;;;6.47;4.68;;;6.50;99.90;;;;;;4834335;29;20042;-75
2023/03/17 01:03:22;;;;;;;9.20;5.20;;;6.50;99.90;;;;;;4839395;29;20042;-75
2023/03/17 01:05:49;;;;;;;6.75;5.05;;;6.50;99.90;;;;;;4835334;29;20121;-75
2023/03/17 01:08:15;;;;;;;7.03;4.38;;;6.50;99.90;;;;;;4840126;29;20120;-75
2023/03/17 01:10:41;;;;;;;7.85;4.90;;;6.50;99.90;;;;;;4851090;29;20070;-75
2023/03/17 01:13:11;;;;;;;7.93;5.05;;;6.50;99.90;;;;;;4838944;29;20057;-75
2023/03/17 01:15:41;;;;;;;7.93;4.75;;;6.50;99.90;;;;;;4821896;29;20046;-75
2023/03/17 01:18:12;;;;;;;10.23;4.80;;;6.50;99.90;;;;;;4853416;29;20037;-75
2023/03/17 01:20:39;;;;;;;8.02;5.05;;;6.60;99.90;;;;;;4843773;29;20049;-76
2023/03/17 01:23:05;;;;;;;8.90;4.57;;;6.60;99.90;;;;;;4870850;29;20100;-75
2023/03/17 01:25:31;;;;;;;6.55;4.32;;;6.60;99.90;;;;;;4833037;29;20045;-75
2023/03/17 01:27:58;;;;;;;7.33;4.30;;;6.60;99.90;;;;;;4856709;29;20080;-75
2023/03/17 01:30:27;;;;;;;7.50;4.75;;;6.60;99.90;;;;;;4854401;29;20061;-75
2023/03/17 01:32:54;;;;;;;7.05;4.50;;;6.60;99.90;;;;;;4856059;29;20045;-75
2023/03/17 01:35:20;;;;;;;5.97;4.10;;;6.60;99.90;;;;;;4837461;29;20042;-75
2023/03/17 01:37:47;;;;;;;6.78;4.60;;;6.60;99.90;;;;;;4855274;29;20084;-75
2023/03/17 01:40:26;;;;;;;8.13;4.50;;;6.60;99.90;;;;;;4829807;29;20456;-75
2023/03/17 01:43:07;;;;;;;7.60;4.35;;;6.60;99.90;;;;;;4847489;29;20053;-75
2023/03/17 01:46:11;;;;;;;7.53;4.13;;;6.60;99.90;;;;;;4852169;29;20460;-75
2023/03/17 01:48:44;;;;;;;5.40;3.95;;;6.50;99.90;;;;;;4853768;29;20046;-75
2023/03/17 01:51:24;;;;;;;5.00;3.80;;;6.50;99.90;;;;;;4853875;29;20132;-75
2023/03/17 01:53:51;;;;;;;7.78;4.15;;;6.50;99.90;;;;;;4857224;29;20045;-75
2023/03/17 01:56:18;;;;;;;8.20;4.50;;;6.40;99.90;;;;;;4841354;29;20037;-75
2023/03/17 01:58:48;;;;;;;7.97;4.20;;;6.40;99.90;;;;;;4841076;29;20077;-75
2023/03/17 02:01:13;;;;;;;5.95;4.35;;;6.40;99.90;;;;;;4854183;29;20052;-75
2023/03/17 02:03:41;;;;;;;8.03;3.90;;;6.40;99.90;;;;;;4861630;29;20071;-75
2023/03/17 02:06:08;;;;;;;6.65;4.15;;;6.40;99.90;;;;;;4846558;29;20104;-75
2023/03/17 02:08:33;;;;;;;6.38;4.28;;;6.40;99.90;;;;;;4854808;29;20026;-75
2023/03/17 02:11:02;;;;;;;6.17;4.17;;;6.40;99.90;;;;;;4855717;29;20049;-75
2023/03/17 02:13:28;;;;;;;7.55;4.30;;;6.40;99.90;;;;;;4855282;29;20050;-75
2023/03/17 02:15:55;;;;;;;4.72;3.88;;;6.40;99.90;;;;;;4851404;29;20045;-75
2023/03/17 02:18:22;;;;;;;6.15;4.00;;;6.50;99.90;;;;;;4852826;29;20048;-75
2023/03/17 02:20:48;;;;;;;6.65;3.63;;;6.40;99.90;;;;;;4837027;29;20060;-75
2023/03/17 02:23:17;;;;;;;4.70;3.80;;;6.40;99.90;;;;;;4853760;29;20046;-75
2023/03/17 02:25:46;;;;;;;5.38;3.60;;;6.40;99.90;;;;;;4854821;29;20074;-75
2023/03/17 02:28:17;;;;;;;7.93;3.75;;;6.40;99.90;;;;;;4837455;29;20061;-75
2023/03/17 02:30:43;;;;;;;6.43;3.70;;;6.40;99.90;;;;;;4858543;29;20045;-75
2023/03/17 02:33:10;;;;;;;7.45;3.50;;;6.40;99.90;;;;;;4853741;29;20046;-75
2023/03/17 02:35:37;;;;;;;6.80;3.95;;;6.40;99.90;;;;;;4836518;29;20071;-75
2023/03/17 02:38:03;;;;;;;5.82;3.42;;;6.40;99.90;;;;;;4833587;29;20044;-75
2023/03/17 02:40:28;;;;;;;4.83;3.43;;;6.40;99.90;;;;;;4881547;29;20499;-75
2023/03/17 02:42:55;;;;;;;5.10;3.47;;;6.30;99.90;;;;;;4839216;29;20034;-75
2023/03/17 02:45:22;;;;;;;5.85;3.88;;;6.30;99.90;;;;;;4834604;29;20041;-75
2023/03/17 02:47:50;;;;;;;6.38;3.95;;;6.20;99.90;;;;;;4845330;29;20124;-75
2023/03/17 02:50:21;;;;;;;6.63;3.78;;;6.20;99.90;;;;;;4849261;29;20078;-75
2023/03/17 02:52:48;;;;;;;6.80;3.60;;;6.20;99.90;;;;;;4841688;29;20049;-75
2023/03/17 02:55:14;;;;;;;6.88;4.05;;;6.20;99.90;;;;;;4828115;29;20045;-75
2023/03/17 02:57:40;;;;;;;7.97;4.03;;;6.20;99.90;;;;;;4843679;29;20051;-76
2023/03/17 03:00:09;;;;;;;7.30;3.53;;;6.20;99.90;;;;;;4858247;29;20310;-75
2023/03/17 03:02:36;;;;;;;6.10;3.50;;;6.10;99.90;;;;;;4840270;29;20042;-75
2023/03/17 03:05:02;;;;;;;9.05;4.25;;;6.10;99.90;;;;;;4872072;29;20075;-75
2023/03/17 03:07:28;;;;;;;5.85;3.75;;;6.10;99.90;;;;;;4824414;29;20085;-75
2023/03/17 03:09:54;;;;;;;6.18;3.83;;;6.10;99.90;;;;;;4855563;29;20042;-75
2023/03/17 03:12:20;;;;;;;6.23;3.90;;;6.10;99.90;;;;;;4852016;29;20048;-75
2023/03/17 03:14:46;;;;;;;5.70;3.70;;;6.10;99.90;;;;;;4849886;29;20406;-75
2023/03/17 03:17:12;;;;;;;5.85;4.00;;;6.10;99.90;;;;;;4837746;29;20101;-75
2023/03/17 03:19:38;;;;;;;7.23;3.60;;;6.10;99.90;;;;;;4854898;29;20141;-75
2023/03/17 03:22:04;;;;;;;6.60;3.37;;;6.10;99.90;;;;;;4830634;29;20038;-76
2023/03/17 03:24:31;;;;;;;5.40;4.00;;;6.10;99.90;;;;;;4841372;29;20045;-75
2023/03/17 03:26:56;;;;;;;6.05;3.70;;;6.10;99.90;;;;;;4854926;29;20058;-75
2023/03/17 03:29:22;;;;;;;6.47;4.10;;;6.10;99.90;;;;;;4853413;29;20046;-75
2023/03/17 03:31:48;;;;;;;6.43;4.07;;;6.10;99.90;;;;;;4842510;29;20056;-75
2023/03/17 03:34:15;;;;;;;5.53;3.53;;;6.20;99.90;;;;;;4858147;29;20048;-75
2023/03/17 03:36:40;;;;;;;7.65;4.13;;;6.20;99.90;;;;;;4837283;29;20413;-75
2023/03/17 03:39:07;;;;;;;6.97;4.00;;;6.20;99.90;;;;;;4851218;29;20072;-75
2023/03/17 03:41:33;;;;;;;4.88;3.30;;;6.20;99.90;;;;;;4848994;29;20041;-75
2023/03/17 03:43:59;;;;;;;5.60;3.67;;;6.20;99.90;;;;;;4857518;29;20052;-75
2023/03/17 03:46:25;;;;;;;5.95;3.50;;;6.30;99.90;;;;;;4839595;29;20091;-75
2023/03/17 03:48:51;;;;;;;6.20;3.45;;;6.30;99.90;;;;;;4858334;29;20045;-76
2023/03/17 03:51:17;;;;;;;5.90;3.83;;;6.30;99.90;;;;;;4859112;29;20037;-76
2023/03/17 03:53:43;;;;;;;7.00;3.50;;;6.30;99.90;;;;;;4827047;29;20079;-75
2023/03/17 03:56:09;;;;;;;6.57;4.00;;;6.30;99.90;;;;;;4842008;29;20054;-75
2023/03/17 03:58:34;;;;;;;5.90;3.70;;;6.30;99.90;;;;;;4846564;29;20295;-75
2023/03/17 04:01:08;;;;;;;4.30;3.40;;;6.20;99.90;;;;;;4859651;29;20147;-76
2023/03/17 04:03:35;;;;;;;6.43;3.88;;;6.20;99.90;;;;;;4877803;29;20045;-75
2023/03/17 04:06:00;;;;;;;7.97;3.70;;;6.10;99.90;;;;;;4844612;29;20034;-75
2023/03/17 04:08:26;;;;;;;6.40;3.43;;;6.10;99.90;;;;;;4876953;29;20037;-75
2023/03/17 04:10:52;;;;;;;5.90;3.60;;;6.10;99.90;;;;;;4845517;29;20049;-75
2023/03/17 04:13:18;;;;;;;5.73;3.60;;;6.00;99.90;;;;;;4845511;29;20041;-75
2023/03/17 04:15:43;;;;;;;5.33;3.07;;;6.00;99.90;;;;;;4859660;29;20056;-75
2023/03/17 04:18:09;;;;;;;7.77;4.03;;;6.00;99.90;;;;;;4859278;29;20041;-75
2023/03/17 04:20:35;;;;;;;4.93;3.40;;;6.00;99.90;;;;;;4860688;29;20076;-75
2023/03/17 04:23:00;;;;;;;7.97;3.87;;;6.00;99.90;;;;;;4839537;29;20589;-75
2023/03/17 04:25:26;;;;;;;5.53;4.00;;;5.90;99.90;;;;;;4836457;29;20086;-75
2023/03/17 04:27:52;;;;;;;6.17;3.63;;;5.90;99.90;;;;;;4858817;29;20087;-75
2023/03/17 04:30:18;;;;;;;5.33;3.73;;;5.80;99.90;;;;;;4836034;29;20045;-75
2023/03/17 04:32:45;;;;;;;6.78;3.63;;;5.80;99.90;;;;;;4840627;29;20049;-75
2023/03/17 04:35:18;;;;;;;7.28;3.85;;;5.70;99.90;;;;;;4860975;29;20073;-76
2023/03/17 04:37:44;;;;;;;7.15;4.03;;;5.70;99.90;;;;;;4843832;29;20045;-75
2023/03/17 04:40:12;;;;;;;6.10;3.90;;;5.70;99.90;;;;;;4860623;29;20607;-75
2023/03/17 04:42:39;;;;;;;5.78;3.63;;;5.70;99.90;;;;;;4840564;29;20038;-75
2023/03/17 04:45:08;;;;;;;8.70;3.92;;;5.70;99.90;;;;;;4849939;29;20041;-75
2023/03/17 04:47:33;;;;;;;6.90;4.53;;;5.70;99.90;;;;;;4861279;29;20059;-75
2023/03/17 04:50:00;;;;;;;8.00;4.20;;;5.60;99.90;;;;;;4827826;29;20517;-75
2023/03/17 04:52:26;;;;;;;7.82;3.88;;;5.60;99.90;;;;;;4842631;29;20086;-75
2023/03/17 04:54:52;;;;;;;7.53;4.00;;;5.70;99.90;;;;;;4870388;29;20046;-75
2023/03/17 04:57:17;;;;;;;5.50;4.13;;;5.70;99.90;;;;;;4830657;29;20430;-75
2023/03/17 04:59:43;;;;;;;6.10;4.10;;;5.80;99.90;;;;;;4826778;29;20045;-75
2023/03/17 05:02:09;;;;;;;7.20;4.07;;;5.80;99.90;;;;;;4874670;29;20050;-75
2023/03/17 05:04:35;;;;;;;5.57;4.20;;;5.90;99.90;;;;;;4849654;29;20050;-75
2023/03/17 05:07:01;;;;;;;6.63;4.00;;;5.90;99.90;;;;;;4842568;29;20465;-75
2023/03/17 05:09:27;;;;;;;5.93;3.92;;;6.00;99.90;;;;;;4844767;29;20049;-75
2023/03/17 05:11:53;;;;;;;7.97;3.90;;;6.00;99.90;;;;;;4841115;29;20050;-75
2023/03/17 05:14:19;;;;;;;6.82;3.83;;;6.10;99.90;;;;;;4822384;29;20046;-75
2023/03/17 05:16:49;;;;;;;5.90;4.03;;;6.10;99.90;;;;;;4854035;29;20048;-75
2023/03/17 05:19:15;;;;;;;7.85;4.10;;;6.20;99.90;;;;;;4842238;29;20386;-75
2023/03/17 05:21:41;;;;;;;5.13;3.85;;;6.20;99.90;;;;;;4851796;29;20081;-75
2023/03/17 05:24:08;;;;;;;6.80;4.47;;;6.20;99.90;;;;;;4828172;29;20422;-75
2023/03/17 05:26:34;;;;;;;7.97;3.88;;;6.20;99.90;;;;;;4855373;29;20138;-75
2023/03/17 05:29:00;;;;;;;7.90;4.43;;;6.20;99.90;;;;;;4817002;29;20053;-75
2023/03/17 05:31:26;;;;;;;8.02;4.75;;;6.20;99.90;;;;;;4849884;29;20054;-76
2023/03/17 05:33:52;;;;;;;6.83;4.47;;;6.20;99.90;;;;;;4822991;29;20052;-76
2023/03/17 05:36:18;;;;;;;7.15;4.07;;;6.20;99.90;;;;;;4852826;29;20090;-75
2023/03/17 05:38:44;;;;;;;8.67;4.47;;;6.30;99.90;;;;;;4852535;29;20045;-75
2023/03/17 05:41:13;;;;;;;8.70;4.70;;;6.30;99.90;;;;;;4841304;29;20041;-75
2023/03/17 05:43:38;;;;;;;9.43;3.80;;;6.30;99.90;;;;;;4849800;29;20053;-75
2023/03/17 05:46:04;;;;;;;6.23;3.70;;;6.30;99.90;;;;;;4842867;29;20123;-75
2023/03/17 05:48:31;;;;;;;7.40;4.28;;;6.30;99.90;;;;;;4859701;29;20120;-75
2023/03/17 05:50:56;;;;;;;5.30;3.70;;;6.30;99.90;;;;;;4849374;29;20042;-75
2023/03/17 05:53:22;;;;;;;6.03;4.27;;;6.30;99.90;;;;;;4830226;29;20131;-75
2023/03/17 05:55:48;;;;;;;9.57;4.10;;;6.30;99.90;;;;;;4858101;29;20458;-75
2023/03/17 05:58:15;;;;;;;5.93;3.30;;;6.30;99.90;;;;;;4818254;29;20044;-75
2023/03/17 06:00:42;;;;;;;6.68;3.40;;;6.30;99.90;;;;;;4851877;29;20128;-75
2023/03/17 06:03:08;;;;;;;4.90;3.20;;;6.40;99.90;;;;;;4814600;29;20082;-75
2023/03/17 06:05:34;;;;;;;5.25;3.22;;;6.40;99.90;;;;;;4837650;29;20049;-76
2023/03/17 06:08:00;;;;;;;6.97;3.60;;;6.40;99.90;;;;;;4846229;29;20528;-76
2023/03/17 06:10:26;;;;;;;5.65;3.20;;;6.40;99.90;;;;;;4823863;29;20073;-76
2023/03/17 06:12:53;;;;;;;4.93;3.03;;;6.50;99.90;;;;;;4839456;29;20045;-77
2023/03/17 06:15:19;;;;;;;6.75;3.55;;;6.50;99.90;;;;;;4840494;29;20045;-76
2023/03/17 06:17:45;;;;;;;6.07;3.30;;;6.50;99.90;;;;;;4836441;29;20048;-76
2023/03/17 06:20:13;;;;;;;6.67;4.20;;;6.50;99.90;;;;;;4836658;29;20046;-76
2023/03/17 06:22:39;;;;;;;5.30;3.40;;;6.50;99.90;;;;;;4840260;29;20041;-76
2023/03/17 06:25:05;;;;;;;5.27;2.87;;;6.60;99.90;;;;;;4841954;29;20094;-76
2023/03/17 06:27:31;;;;;;;8.38;3.50;;;6.60;99.90;;;;;;4839605;29;20484;-76
2023/03/17 06:29:59;;;;;;;4.95;3.53;;;6.60;99.90;;;;;;4838954;29;20053;-76
2023/03/17 06:32:25;;;;;;;7.90;3.47;;;6.60;99.90;;;;;;4856272;29;20049;-76
2023/03/17 06:34:52;;;;;;;6.20;3.30;;;6.70;99.90;;;;;;4856036;29;20563;-76
2023/03/17 06:37:18;;;;;;;7.47;3.92;;;6.70;99.90;;;;;;4842760;29;20085;-76
2023/03/17 06:39:44;;;;;;;6.03;3.70;;;6.70;99.90;;;;;;4856046;29;20550;-76
2023/03/17 06:42:10;;;;;;;4.73;3.40;;;6.80;99.90;;;;;;4824924;29;20048;-76
2023/03/17 06:44:36;;;;;;;4.50;3.10;;;6.80;99.90;;;;;;4834824;29;20045;-76
2023/03/17 06:47:01;;;;;;;8.02;3.65;;;6.90;99.90;;;;;;4844082;29;20080;-76
2023/03/17 06:49:27;;;;;;;6.37;3.27;;;6.90;99.90;;;;;;4856292;29;20049;-76
2023/03/17 06:51:53;;;;;;;4.97;3.08;;;7.00;99.90;;;;;;4860068;29;20037;-76
2023/03/17 06:54:23;;;;;;;4.30;3.10;;;7.00;99.90;;;;;;4824244;29;20048;-76
2023/03/17 06:56:49;;;;;;;4.93;3.10;;;7.00;99.90;;;;;;4855144;29;20503;-76
2023/03/17 06:59:14;;;;;;;4.77;2.93;;;7.10;99.90;;;;;;4811684;29;20053;-76
2023/03/17 07:01:40;;;;;;;5.93;3.13;;;7.10;99.90;;;;;;4858623;29;20046;-75
2023/03/17 07:04:06;;;;;;;4.53;2.80;;;7.10;99.90;;;;;;4843511;29;20048;-76
2023/03/17 07:06:32;;;;;;;5.40;3.07;;;7.10;99.90;;;;;;4841283;29;20050;-76
2023/03/17 07:08:58;;;;;;;5.03;2.90;;;7.20;99.90;;;;;;4836394;29;20049;-76
2023/03/17 07:11:25;;;;;;;7.10;3.73;;;7.20;99.90;;;;;;4827318;29;20088;-76
2023/03/17 07:13:51;;;;;;;5.57;3.20;;;7.20;99.90;;;;;;4857344;29;20049;-76
2023/03/17 07:16:19;;;;;;;5.68;3.13;;;7.30;99.90;;;;;;4873869;29;20034;-76
2023/03/17 07:18:45;;;;;;;6.68;3.38;;;7.30;99.90;;;;;;4839587;29;20083;-76
2023/03/17 07:21:11;;;;;;;5.80;3.53;;;7.40;99.90;;;;;;4838665;29;20070;-76
2023/03/17 07:23:37;;;;;;;9.87;3.23;;;7.50;99.90;;;;;;4852664;29;20287;-76
2023/03/17 07:26:03;;;;;;;7.00;3.70;;;7.50;99.90;;;;;;4852516;29;20294;-76
2023/03/17 07:28:29;;;;;;;6.60;3.10;;;7.70;99.90;;;;;;4863757;29;20065;-76
2023/03/17 07:30:56;;;;;;;7.90;3.95;;;7.80;99.90;;;;;;4834909;29;20113;-76
2023/03/17 07:33:24;;;;;;;5.88;3.50;;;7.90;99.90;;;;;;4838203;29;20038;-76
2023/03/17 07:35:50;;;;;;;5.15;3.20;;;8.00;99.90;;;;;;4857155;29;20041;-76
2023/03/17 07:38:17;;;;;;;5.45;3.22;;;8.10;99.90;;;;;;4857810;29;20037;-76
2023/03/17 07:40:45;;;;;;;5.22;3.08;;;8.20;99.90;;;;;;4843096;29;20069;-76
2023/03/17 07:43:11;;;;;;;5.60;3.65;;;8.30;99.90;;;;;;4845724;29;20030;-76
2023/03/17 07:45:37;;;;;;;6.47;3.00;;;8.50;99.90;;;;;;4856980;29;20053;-76
2023/03/17 07:48:04;;;;;;;6.07;3.23;;;8.50;99.90;;;;;;4836412;29;20097;-76
2023/03/17 07:50:34;;;;;;;7.22;3.80;;;8.60;99.90;;;;;;4859186;29;20124;-77
2023/03/17 07:53:00;;;;;;;7.20;3.38;;;8.70;99.90;;;;;;4841108;29;20110;-77
2023/03/17 07:55:26;;;;;;;7.72;4.20;;;8.70;99.90;;;;;;4843766;29;20057;-77
2023/03/17 07:57:52;;;;;;;6.43;3.35;;;8.80;99.90;;;;;;4859852;29;20044;-77
2023/03/17 08:00:19;;;;;;;9.90;3.63;;;8.80;98.80;;;;;;4856224;29;20447;-77
2023/03/17 08:02:45;;;;;;;8.00;3.88;;;8.90;97.90;;;;;;4828392;29;20053;-77
2023/03/17 08:05:12;;;;;;;5.43;3.15;;;8.90;98.40;;;;;;4828085;29;20082;-76
2023/03/17 08:07:37;;;;;;;5.88;2.88;;;9.00;97.20;;;;;;4850128;29;20052;-76
2023/03/17 08:10:06;;;;;;;4.93;2.80;;;9.10;96.70;;;;;;4859212;29;20057;-77
2023/03/17 08:12:33;;;;;;;4.38;2.70;;;9.10;95.20;;;;;;4858125;29;20060;-77
2023/03/17 08:14:59;;;;;;;4.82;3.03;;;9.20;95.60;;;;;;4872086;29;20048;-77
2023/03/17 08:17:26;;;;;;;6.30;2.97;;;9.20;94.70;;;;;;4849742;29;20081;-77
2023/03/17 08:19:55;;;;;;;4.45;3.10;;;9.30;95.40;;;;;;4848608;29;20048;-77
2023/03/17 08:22:22;;;;;;;5.45;2.67;;;9.40;95.80;;;;;;4838893;29;20122;-77
2023/03/17 08:24:48;;;;;;;6.60;3.00;;;9.40;93.40;;;;;;4855876;29;20049;-76
2023/03/17 08:27:15;;;;;;;4.37;2.10;;;9.50;93.60;;;;;;4850115;29;20104;-76
2023/03/17 08:29:41;;;;;;;5.60;2.90;;;9.70;93.80;;;;;;4844474;29;20046;-77
2023/03/17 08:32:07;;;;;;;5.93;3.75;;;9.80;92.80;;;;;;4825133;29;20550;-76
2023/03/17 08:34:34;;;;;;;5.32;3.05;;;9.90;92.40;;;;;;4841478;29;20041;-77
2023/03/17 08:37:02;;;;;;;6.78;3.40;;;10.00;92.40;;;;;;4838447;29;20046;-76
2023/03/17 08:39:28;;;;;;;8.13;3.85;;;10.20;91.90;;;;;;4857849;29;20045;-76
2023/03/17 08:41:54;;;;;;;9.00;4.05;;;10.40;91.00;;;;;;4841145;29;20045;-76
2023/03/17 08:44:20;;;;;;;7.20;3.97;;;10.60;91.20;;;;;;4853163;29;20038;-76
2023/03/17 08:46:48;;;;;;;5.60;3.47;;;10.80;91.00;;;;;;4838345;29;20109;-77
2023/03/17 08:49:14;;;;;;;6.15;3.00;;;11.10;89.10;;;;;;4853737;29;20050;-75
2023/03/17 08:51:41;;;;;;;5.85;2.83;;;11.30;87.80;;;;;;4856594;29;20050;-77
2023/03/17 08:54:07;;;;;;;4.90;2.83;;;11.40;85.50;;;;;;4836133;29;20433;-77
2023/03/17 08:56:33;;;;;;;4.37;2.70;;;11.60;85.00;;;;;;4852740;29;21124;-77
2023/03/17 08:58:59;;;;;;;5.60;2.90;;;11.80;85.00;;;;;;4853422;29;20354;-76
2023/03/17 09:01:26;;;;;;;3.97;3.03;;;12.00;83.70;;;;;;4807985;29;20053;-77
2023/03/17 09:03:55;;;;;;;5.53;2.67;;;12.20;82.80;;;;;;4835570;29;20414;-77
2023/03/17 09:06:21;;;;;;;5.03;2.73;;;12.30;79.50;;;;;;4851756;29;20286;-77
2023/03/17 09:09:19;;;;;;;6.47;2.73;;;12.40;79.60;;;;;;4850444;29;20286;-77
2023/03/17 09:12:33;;;;;;;;;;;12.40;77.00;;;;;;4845124;29;20282;-77
2023/03/17 09:38:18;;;;;;;6.47;3.17;;;13.20;73.40;;;;;;4638857;23;20362;-73
2023/03/17 09:40:51;;;;;;;6.23;3.20;;;13.30;73.70;;;;;;4798956;29;20328;-73
2023/03/17 09:43:32;;;;;;;5.30;3.00;;;13.30;71.80;;;;;;4815798;29;20314;-73
2023/03/17 09:46:26;;;;;;;5.67;3.50;;;13.30;71.80;;;;;;4814603;29;20812;-75
2023/03/17 09:49:00;;;;;;;6.87;3.40;;;13.30;67.10;;;;;;4835383;29;20291;-75
2023/03/17 09:51:28;;;;;;;4.97;3.27;;;13.10;68.40;;;;;;4857747;29;20294;-75
2023/03/17 09:54:21;;;;;;;8.00;3.63;;;13.10;71.20;;;;;;4841121;29;20841;-75
2023/03/17 09:56:55;;;;;;;8.07;3.50;;;13.10;70.70;;;;;;4816579;29;20322;-75
2023/03/17 09:59:39;;;;;;;6.53;3.50;;;13.10;71.40;;;;;;4839183;29;20294;-75
2023/03/17 10:02:21;;;;;;;6.37;3.90;;;13.30;70.30;;;;;;4818516;29;20780;-75
2023/03/17 10:04:47;;;;;;;6.30;3.63;;;13.40;71.60;;;;;;4814368;29;20332;-75
2023/03/17 10:07:17;;;;;;;8.03;3.97;;;13.50;72.20;;;;;;4806437;29;20325;-75
2023/03/17 10:10:00;;;;;;;6.47;3.80;;;13.60;69.40;;;;;;4817356;29;20373;-75
2023/03/17 10:12:37;;;;;;;5.93;3.87;;;13.60;69.30;;;;;;4816254;29;20309;-75
2023/03/17 10:15:22;;;;;;;6.77;4.23;;;13.70;71.00;;;;;;4835977;29;20313;-75
2023/03/17 10:17:50;;;;;;;8.77;3.97;;;13.80;69.90;;;;;;4820909;29;20286;-75
2023/03/17 10:20:29;;;;;;;5.33;3.90;;;13.80;70.30;;;;;;4805324;29;20368;-75
2023/03/17 10:23:03;;;;;;;7.30;3.73;;;13.80;71.60;;;;;;4840720;29;20369;-75
2023/03/17 10:25:31;;;;;;;6.25;4.00;;;13.80;72.40;;;;;;4836789;29;20377;-75
2023/03/17 10:28:28;;;;;;;7.90;4.30;;;13.80;68.00;;;;;;4835474;29;20091;-75
2023/03/17 10:31:11;;;;;;;5.87;4.03;;;13.90;68.60;;;;;;4826682;29;20805;-75
2023/03/17 10:33:37;;;;;;;8.27;4.53;;;13.90;68.10;;;;;;4839684;29;20298;-75
2023/03/17 10:36:13;;;;;;;7.70;4.27;;;13.90;68.30;;;;;;4838176;29;20305;-75
2023/03/17 10:38:39;;;;;;;7.13;4.40;;;13.90;68.40;;;;;;4808062;29;20051;-75
2023/03/17 10:41:13;;;;;;;8.97;4.07;;;13.90;69.10;;;;;;4809425;29;20283;-75
2023/03/17 10:44:09;;;;;;;9.45;4.65;;;14.00;67.50;;;;;;4826003;29;20064;-75
2023/03/17 10:46:37;;;;;;;9.07;4.70;;;14.10;66.40;;;;;;4832504;29;20063;-75
2023/03/17 10:49:09;;;;;;;6.73;4.50;;;14.10;67.90;;;;;;4819471;29;20695;-75
2023/03/17 10:51:37;;;;;;;7.47;4.63;;;14.30;67.20;;;;;;4837339;29;21006;-75
2023/03/17 10:54:16;;;;;;;6.70;4.70;;;14.30;67.10;;;;;;4832720;29;20813;-75
2023/03/17 10:56:45;;;;;;;7.20;4.60;;;14.40;64.60;;;;;;4826144;29;20286;-75
2023/03/17 10:59:27;;;;;;;8.03;4.67;;;14.30;65.00;;;;;;4823762;29;20707;-76
2023/03/17 11:01:58;;;;;;;7.10;4.33;;;14.30;65.00;;;;;;4822896;29;20798;-76
2023/03/17 11:04:27;;;;;;;6.73;4.47;;;14.40;65.30;;;;;;4807781;29;20278;-76
2023/03/17 11:27:20;;;;;;;9.00;4.55;;;14.50;63.40;;;;;;506454;27;20327;-73
2023/03/17 11:29:59;;;;;;;7.57;4.43;;;14.60;64.70;;;;;;4817525;29;20093;-74
2023/03/17 11:32:31;;;;;;;6.30;4.30;;;14.70;65.90;;;;;;4837012;29;20339;-74
2023/03/17 11:35:25;;;;;;;8.43;5.30;;;14.80;65.30;;;;;;4826738;29;20306;-74
2023/03/17 11:38:23;;;;;;;9.73;5.00;;;14.90;63.40;;;;;;4834525;29;20342;-74
2023/03/17 11:41:17;;;;;;;9.13;5.83;;;14.90;63.70;;;;;;4843153;29;20290;-74
2023/03/17 11:44:04;;;;;;;7.83;4.77;;;14.90;64.90;;;;;;4838085;29;20385;-74
2023/03/17 11:46:42;;;;;;;8.63;4.70;;;15.00;64.30;;;;;;4843143;29;20286;-74
2023/03/17 11:49:21;;;;;;;7.93;4.90;;;15.10;64.40;;;;;;4843267;29;20841;-74
2023/03/17 11:52:03;;;;;;;6.27;5.07;;;15.00;62.10;;;;;;4828102;29;20286;-74
2023/03/17 11:54:34;;;;;;;6.30;4.83;;;15.00;64.70;;;;;;4856973;29;20311;-74
2023/03/17 11:57:04;;;;;;;7.33;5.27;;;15.00;64.60;;;;;;4843352;29;20309;-74
2023/03/17 11:59:55;;;;;;;8.20;5.47;;;15.00;64.90;;;;;;4826401;29;20305;-74
2023/03/17 12:02:45;;;;;;;6.37;5.00;;;15.00;63.00;;;;;;4841841;29;20658;-74
2023/03/17 12:05:22;;;;;;;10.03;5.60;;;14.90;64.30;;;;;;4826196;29;20290;-74
2023/03/17 12:07:54;;;;;;;6.80;5.47;;;14.80;64.90;;;;;;4817489;29;20930;-74
2023/03/17 12:10:39;;;;;;;7.67;5.20;;;14.70;64.20;;;;;;4826820;29;20297;-74
2023/03/17 12:13:21;;;;;;;9.05;5.85;;;14.50;65.20;;;;;;4822021;29;20317;-74
2023/03/17 12:16:04;;;;;;;9.00;5.97;;;14.30;64.80;;;;;;4843443;29;20069;-74
2023/03/17 12:18:56;;;;;;;9.73;5.50;;;14.30;65.60;;;;;;4823431;29;20766;-75
2023/03/17 12:21:48;;;;;;;9.80;5.57;;;14.40;65.90;;;;;;4829257;29;20286;-75
2023/03/17 12:24:39;;;;;;;11.00;5.43;;;14.50;65.90;;;;;;4856928;29;20716;-75
2023/03/17 12:27:20;;;;;;;8.77;5.60;;;14.60;65.70;;;;;;4827096;29;20290;-75
2023/03/17 12:29:54;;;;;;;6.67;5.20;;;14.80;65.80;;;;;;4826342;29;20302;-75
2023/03/17 12:32:25;;;;;;;7.57;5.67;;;15.10;66.60;;;;;;4827159;29;20306;-74
2023/03/17 12:34:55;;;;;;;9.70;5.73;;;15.20;64.30;;;;;;4827362;29;20326;-74
2023/03/17 12:37:22;;;;;;;7.67;5.50;;;15.30;65.30;;;;;;4838670;29;20310;-75
2023/03/17 12:40:19;;;;;;;6.77;5.60;;;15.30;63.40;;;;;;4842245;29;20294;-75
2023/03/17 12:43:02;;;;;;;7.77;6.10;;;15.10;65.20;;;;;;4837817;29;20313;-75
2023/03/17 12:45:55;;;;;;;10.90;6.73;;;15.10;67.00;;;;;;4821843;29;20332;-75
2023/03/17 12:48:36;;;;;;;10.17;5.30;;;15.00;67.20;;;;;;4836085;29;20294;-75
2023/03/17 12:51:36;;;;;;;9.57;5.50;;;15.00;67.10;;;;;;4820415;29;20600;-75
2023/03/17 12:54:02;;;;;;;12.90;5.80;;;15.00;66.30;;;;;;4855539;29;20389;-75
2023/03/17 12:56:31;;;;;;;9.53;6.17;;;14.90;67.00;;;;;;4810792;29;20985;-75
2023/03/17 12:59:12;;;;;;;10.40;6.57;;;14.90;67.80;;;;;;4822186;29;20297;-75
2023/03/17 13:01:41;;;;;;;10.20;6.40;;;14.90;67.40;;;;;;4835589;29;20789;-75
2023/03/17 13:04:37;;;;;;;8.67;6.63;;;14.90;68.20;;;;;;4852427;29;20743;-75
2023/03/17 13:07:13;;;;;;;8.52;6.43;;;15.00;67.20;;;;;;4840360;29;20294;-75
2023/03/17 13:09:44;;;;;;;9.30;6.10;;;15.20;68.30;;;;;;4853172;29;20054;-75
2023/03/17 13:12:48;;;;;;;8.77;5.53;;;15.40;68.10;;;;;;4839190;29;20747;-75
2023/03/17 13:15:23;;;;;;;7.80;6.00;;;15.80;66.30;;;;;;4740904;30;20402;-75
2023/03/17 13:17:51;;;;;;;6.97;5.47;;;16.10;65.90;;;;;;4808189;29;20345;-75
2023/03/17 13:20:18;;;;;;;7.37;6.03;;;16.30;65.20;;;;;;4838742;29;20298;-75
2023/03/17 13:23:10;;;;;;;9.13;6.27;;;16.50;64.70;;;;;;4840209;29;20282;-75
2023/03/17 13:25:44;;;;;;;13.40;6.60;;;16.70;61.00;;;;;;4826555;29;20351;-75
2023/03/17 13:28:12;;;;;;;8.00;5.93;;;16.80;61.30;;;;;;4852036;29;20310;-75
2023/03/17 13:30:38;;;;;;;9.90;6.97;;;16.70;60.70;;;;;;4839893;29;20899;-75
2023/03/17 13:33:08;;;;;;;7.40;5.80;;;16.50;61.40;;;;;;4839622;29;20297;-74
2023/03/17 13:36:05;;;;;;;13.03;6.83;;;16.40;62.30;;;;;;4839610;29;20050;-74
2023/03/17 13:39:00;;;;;;;10.27;6.73;;;16.30;63.20;;;;;;4808759;29;20386;-74
2023/03/17 13:41:56;;;;;;;10.18;6.57;;;16.50;63.50;;;;;;4831314;29;20430;-75
2023/03/17 13:44:56;;;;;;;9.60;7.07;;;16.70;60.90;;;;;;4824276;29;20061;-75
2023/03/17 13:47:22;;;;;;;12.30;7.00;;;16.80;61.40;;;;;;4850703;29;20294;-75
2023/03/17 13:49:50;;;;;;;8.80;6.60;;;16.80;62.10;;;;;;4840728;29;20301;-75
2023/03/17 13:52:24;;;;;;;12.67;6.67;;;16.90;62.30;;;;;;4856097;29;20521;-75
2023/03/17 13:55:33;;;;;;;9.10;6.35;;;16.80;62.30;;;;;;4823148;29;20333;-75